sensor_id;sensor_type;location;lat;lon;timestamp;temperature;humidity
46117;DHT22;32591;48.102;11.772;2023-11-19T00:01:58;5.80;99.90
46117;DHT22;32591;48.102;11.772;2023-11-19T00:04:25;5.80;99.90
46117;DHT22;32591;48.102;11.772;2023-11-19T00:06:51;5.90;99.90
46117;DHT22;32591;48.102;11.772;2023-11-19T00:09:18;5.80;99.90
46117;DHT22;32591;48.102;11.772;2023-11-19T00:11:45;7.10;99.90
46117;DHT22;32591;48.102;11.772;2023-11-19T00:14:13;5.80;99.90
46117;DHT22;32591;48.102;11.772;2023-11-19T00:16:42;5.80;99.90
46117;DHT22;32591;48.102;11.772;2023-11-19T00:19:09;5.70;99.90
46117;DHT22;32591;48.102;11.772;2023-11-19T00:21:36;5.70;99.90
46117;DHT22;32591;48.102;11.772;2023-11-19T00:24:04;5.60;99.90
46117;DHT22;32591;48.102;11.772;2023-11-19T00:26:32;5.60;99.90
46117;DHT22;32591;48.102;11.772;2023-11-19T00:28:59;5.70;99.90
46117;DHT22;32591;48.102;11.772;2023-11-19T00:31:27;5.80;99.90
46117;DHT22;32591;48.102;11.772;2023-11-19T00:33:54;5.80;99.90
46117;DHT22;32591;48.102;11.772;2023-11-19T00:36:21;5.60;99.90
46117;DHT22;32591;48.102;11.772;2023-11-19T00:38:49;5.50;99.90
46117;DHT22;32591;48.102;11.772;2023-11-19T00:41:18;5.50;99.90
46117;DHT22;32591;48.102;11.772;2023-11-19T00:43:45;5.50;99.90
46117;DHT22;32591;48.102;11.772;2023-11-19T00:46:12;5.70;99.90
46117;DHT22;32591;48.102;11.772;2023-11-19T00:48:40;5.70;99.90
46117;DHT22;32591;48.102;11.772;2023-11-19T00:51:07;5.70;99.90
46117;DHT22;32591;48.102;11.772;2023-11-19T00:53:34;5.70;99.90
46117;DHT22;32591;48.102;11.772;2023-11-19T00:56:00;5.80;99.90
46117;DHT22;32591;48.102;11.772;2023-11-19T00:58:27;5.90;99.90
46117;DHT22;32591;48.102;11.772;2023-11-19T01:00:54;6.00;99.90
46117;DHT22;32591;48.102;11.772;2023-11-19T01:03:22;6.10;99.90
46117;DHT22;32591;48.102;11.772;2023-11-19T01:05:50;6.20;99.90
46117;DHT22;32591;48.102;11.772;2023-11-19T01:08:18;6.20;99.90
46117;DHT22;32591;48.102;11.772;2023-11-19T01:10:44;6.30;99.90
46117;DHT22;32591;48.102;11.772;2023-11-19T01:13:11;6.40;99.90
46117;DHT22;32591;48.102;11.772;2023-11-19T01:15:39;6.30;99.90
46117;DHT22;32591;48.102;11.772;2023-11-19T01:18:06;6.30;99.90
46117;DHT22;32591;48.102;11.772;2023-11-19T01:20:34;6.20;99.90
46117;DHT22;32591;48.102;11.772;2023-11-19T01:23:02;6.30;99.90
46117;DHT22;32591;48.102;11.772;2023-11-19T01:25:29;6.30;99.90
46117;DHT22;32591;48.102;11.772;2023-11-19T01:27:56;7.40;99.90
46117;DHT22;32591;48.102;11.772;2023-11-19T01:30:23;6.30;99.90
46117;DHT22;32591;48.102;11.772;2023-11-19T01:32:51;6.30;99.90
46117;DHT22;32591;48.102;11.772;2023-11-19T01:35:17;6.30;99.90
46117;DHT22;32591;48.102;11.772;2023-11-19T01:37:44;6.20;99.90
46117;DHT22;32591;48.102;11.772;2023-11-19T01:40:13;6.20;99.90
46117;DHT22;32591;48.102;11.772;2023-11-19T01:42:40;6.20;99.90
46117;DHT22;32591;48.102;11.772;2023-11-19T01:45:08;6.20;99.90
46117;DHT22;32591;48.102;11.772;2023-11-19T01:47:35;6.20;99.90
46117;DHT22;32591;48.102;11.772;2023-11-19T01:50:03;7.30;99.90
46117;DHT22;32591;48.102;11.772;2023-11-19T01:52:32;6.20;99.90
46117;DHT22;32591;48.102;11.772;2023-11-19T01:55:01;6.20;99.90
46117;DHT22;32591;48.102;11.772;2023-11-19T01:57:30;6.30;99.90
46117;DHT22;32591;48.102;11.772;2023-11-19T01:59:57;6.20;99.90
46117;DHT22;32591;48.102;11.772;2023-11-19T02:02:24;6.30;99.90
46117;DHT22;32591;48.102;11.772;2023-11-19T02:04:51;6.30;99.90
46117;DHT22;32591;48.102;11.772;2023-11-19T02:07:19;6.40;99.90
46117;DHT22;32591;48.102;11.772;2023-11-19T02:09:45;6.50;99.90
46117;DHT22;32591;48.102;11.772;2023-11-19T02:12:12;6.50;99.90
46117;DHT22;32591;48.102;11.772;2023-11-19T02:14:41;6.50;99.90
46117;DHT22;32591;48.102;11.772;2023-11-19T02:17:08;6.50;99.90
46117;DHT22;32591;48.102;11.772;2023-11-19T02:19:51;6.60;99.90
46117;DHT22;32591;48.102;11.772;2023-11-19T02:22:18;6.70;99.90
46117;DHT22;32591;48.102;11.772;2023-11-19T02:24:45;6.70;99.90
46117;DHT22;32591;48.102;11.772;2023-11-19T02:27:14;6.70;99.90
46117;DHT22;32591;48.102;11.772;2023-11-19T02:29:44;6.70;99.90
46117;DHT22;32591;48.102;11.772;2023-11-19T02:32:11;6.80;99.90
46117;DHT22;32591;48.102;11.772;2023-11-19T02:34:38;6.70;99.90
46117;DHT22;32591;48.102;11.772;2023-11-19T02:37:05;6.70;99.90
46117;DHT22;32591;48.102;11.772;2023-11-19T02:39:33;6.70;99.90
46117;DHT22;32591;48.102;11.772;2023-11-19T02:42:00;6.70;99.90
46117;DHT22;32591;48.102;11.772;2023-11-19T02:44:27;6.70;99.90
46117;DHT22;32591;48.102;11.772;2023-11-19T02:46:57;6.70;99.90
46117;DHT22;32591;48.102;11.772;2023-11-19T02:49:24;6.70;99.90
46117;DHT22;32591;48.102;11.772;2023-11-19T02:51:51;6.70;99.90
46117;DHT22;32591;48.102;11.772;2023-11-19T02:54:18;6.70;99.90
46117;DHT22;32591;48.102;11.772;2023-11-19T02:56:46;6.70;99.90
46117;DHT22;32591;48.102;11.772;2023-11-19T02:59:20;6.80;99.90
46117;DHT22;32591;48.102;11.772;2023-11-19T03:01:52;6.90;99.90
46117;DHT22;32591;48.102;11.772;2023-11-19T03:04:21;7.00;99.90
46117;DHT22;32591;48.102;11.772;2023-11-19T03:06:48;7.00;99.90
46117;DHT22;32591;48.102;11.772;2023-11-19T03:09:15;7.20;99.90
46117;DHT22;32591;48.102;11.772;2023-11-19T03:11:42;7.30;99.90
46117;DHT22;32591;48.102;11.772;2023-11-19T03:14:09;7.40;99.90
46117;DHT22;32591;48.102;11.772;2023-11-19T03:16:36;7.50;99.90
46117;DHT22;32591;48.102;11.772;2023-11-19T03:19:03;7.50;99.90
46117;DHT22;32591;48.102;11.772;2023-11-19T03:21:31;7.60;99.90
46117;DHT22;32591;48.102;11.772;2023-11-19T03:23:58;7.70;99.90
46117;DHT22;32591;48.102;11.772;2023-11-19T03:26:25;8.50;99.90
46117;DHT22;32591;48.102;11.772;2023-11-19T03:28:52;7.70;99.90
46117;DHT22;32591;48.102;11.772;2023-11-19T03:31:19;7.70;99.90
46117;DHT22;32591;48.102;11.772;2023-11-19T03:33:46;7.80;99.90
46117;DHT22;32591;48.102;11.772;2023-11-19T03:36:13;7.80;99.90
46117;DHT22;32591;48.102;11.772;2023-11-19T03:38:41;7.80;99.90
46117;DHT22;32591;48.102;11.772;2023-11-19T03:41:11;7.80;99.90
46117;DHT22;32591;48.102;11.772;2023-11-19T03:43:38;7.80;99.90
46117;DHT22;32591;48.102;11.772;2023-11-19T03:46:15;7.80;99.90
46117;DHT22;32591;48.102;11.772;2023-11-19T03:48:42;8.00;99.90
46117;DHT22;32591;48.102;11.772;2023-11-19T03:51:09;7.90;99.90
46117;DHT22;32591;48.102;11.772;2023-11-19T03:53:42;7.90;99.90
46117;DHT22;32591;48.102;11.772;2023-11-19T03:56:09;8.00;99.90
46117;DHT22;32591;48.102;11.772;2023-11-19T03:58:46;7.40;99.90
46117;DHT22;32591;48.102;11.772;2023-11-19T04:01:13;8.80;99.90
46117;DHT22;32591;48.102;11.772;2023-11-19T04:03:40;7.90;99.90
46117;DHT22;32591;48.102;11.772;2023-11-19T04:06:07;7.90;99.90
46117;DHT22;32591;48.102;11.772;2023-11-19T04:08:35;7.90;99.90
46117;DHT22;32591;48.102;11.772;2023-11-19T04:11:04;8.00;99.90
46117;DHT22;32591;48.102;11.772;2023-11-19T04:13:31;8.10;99.90
46117;DHT22;32591;48.102;11.772;2023-11-19T04:15:58;8.00;99.90
46117;DHT22;32591;48.102;11.772;2023-11-19T04:18:24;8.10;99.90
46117;DHT22;32591;48.102;11.772;2023-11-19T04:20:51;8.10;99.90
46117;DHT22;32591;48.102;11.772;2023-11-19T04:23:18;8.10;99.90
46117;DHT22;32591;48.102;11.772;2023-11-19T04:25:45;8.10;99.90
46117;DHT22;32591;48.102;11.772;2023-11-19T04:28:13;8.10;99.90
46117;DHT22;32591;48.102;11.772;2023-11-19T04:30:40;8.20;99.90
46117;DHT22;32591;48.102;11.772;2023-11-19T04:33:07;8.20;99.90
46117;DHT22;32591;48.102;11.772;2023-11-19T04:35:33;8.30;99.90
46117;DHT22;32591;48.102;11.772;2023-11-19T04:38:00;8.20;99.90
46117;DHT22;32591;48.102;11.772;2023-11-19T04:40:27;8.20;99.90
46117;DHT22;32591;48.102;11.772;2023-11-19T04:42:54;8.20;99.90
46117;DHT22;32591;48.102;11.772;2023-11-19T04:45:22;8.20;99.90
46117;DHT22;32591;48.102;11.772;2023-11-19T04:47:49;8.20;99.90
46117;DHT22;32591;48.102;11.772;2023-11-19T04:50:15;8.20;99.90
46117;DHT22;32591;48.102;11.772;2023-11-19T04:52:43;8.20;99.90
46117;DHT22;32591;48.102;11.772;2023-11-19T04:55:10;8.30;99.90
46117;DHT22;32591;48.102;11.772;2023-11-19T04:57:39;8.30;99.90
46117;DHT22;32591;48.102;11.772;2023-11-19T05:00:06;8.30;99.90
46117;DHT22;32591;48.102;11.772;2023-11-19T05:02:36;8.30;99.90
46117;DHT22;32591;48.102;11.772;2023-11-19T05:05:03;8.30;99.90
46117;DHT22;32591;48.102;11.772;2023-11-19T05:07:31;8.40;99.90
46117;DHT22;32591;48.102;11.772;2023-11-19T05:09:58;8.50;99.90
46117;DHT22;32591;48.102;11.772;2023-11-19T05:12:25;8.60;99.90
46117;DHT22;32591;48.102;11.772;2023-11-19T05:14:52;8.60;99.90
46117;DHT22;32591;48.102;11.772;2023-11-19T05:17:19;8.70;99.90
46117;DHT22;32591;48.102;11.772;2023-11-19T05:19:48;8.90;99.90
46117;DHT22;32591;48.102;11.772;2023-11-19T05:22:14;8.90;99.90
46117;DHT22;32591;48.102;11.772;2023-11-19T05:24:41;9.00;99.90
46117;DHT22;32591;48.102;11.772;2023-11-19T05:27:08;9.10;99.90
46117;DHT22;32591;48.102;11.772;2023-11-19T05:29:36;9.10;99.90
46117;DHT22;32591;48.102;11.772;2023-11-19T05:32:04;9.30;99.90
46117;DHT22;32591;48.102;11.772;2023-11-19T05:34:32;9.20;99.90
46117;DHT22;32591;48.102;11.772;2023-11-19T05:37:00;9.30;99.90
46117;DHT22;32591;48.102;11.772;2023-11-19T05:39:28;9.30;99.90
46117;DHT22;32591;48.102;11.772;2023-11-19T05:41:55;9.40;99.90
46117;DHT22;32591;48.102;11.772;2023-11-19T05:44:21;9.40;99.90
46117;DHT22;32591;48.102;11.772;2023-11-19T05:46:48;9.50;99.90
46117;DHT22;32591;48.102;11.772;2023-11-19T05:49:15;9.50;99.90
46117;DHT22;32591;48.102;11.772;2023-11-19T05:51:42;9.60;99.90
46117;DHT22;32591;48.102;11.772;2023-11-19T05:54:10;9.70;99.90
46117;DHT22;32591;48.102;11.772;2023-11-19T05:56:37;9.70;99.90
46117;DHT22;32591;48.102;11.772;2023-11-19T05:59:03;9.70;99.90
46117;DHT22;32591;48.102;11.772;2023-11-19T06:01:33;9.70;99.90
46117;DHT22;32591;48.102;11.772;2023-11-19T06:04:00;9.70;99.90
46117;DHT22;32591;48.102;11.772;2023-11-19T06:06:27;9.70;99.90
46117;DHT22;32591;48.102;11.772;2023-11-19T06:08:54;9.70;99.90
46117;DHT22;32591;48.102;11.772;2023-11-19T06:11:23;9.90;99.90
46117;DHT22;32591;48.102;11.772;2023-11-19T06:13:52;9.80;99.90
46117;DHT22;32591;48.102;11.772;2023-11-19T06:16:19;9.80;99.90
46117;DHT22;32591;48.102;11.772;2023-11-19T06:18:46;9.80;99.90
46117;DHT22;32591;48.102;11.772;2023-11-19T06:21:12;9.80;99.90
46117;DHT22;32591;48.102;11.772;2023-11-19T06:23:39;9.90;99.90
46117;DHT22;32591;48.102;11.772;2023-11-19T06:26:06;9.90;99.90
46117;DHT22;32591;48.102;11.772;2023-11-19T06:28:35;9.90;99.90
46117;DHT22;32591;48.102;11.772;2023-11-19T06:31:03;10.00;99.90
46117;DHT22;32591;48.102;11.772;2023-11-19T06:33:30;9.90;99.90
46117;DHT22;32591;48.102;11.772;2023-11-19T06:35:56;9.90;99.90
46117;DHT22;32591;48.102;11.772;2023-11-19T06:38:25;10.00;99.90
46117;DHT22;32591;48.102;11.772;2023-11-19T06:40:52;10.00;99.90
46117;DHT22;32591;48.102;11.772;2023-11-19T06:43:18;10.00;99.90
46117;DHT22;32591;48.102;11.772;2023-11-19T06:45:47;10.00;99.90
46117;DHT22;32591;48.102;11.772;2023-11-19T06:48:13;10.00;99.90
46117;DHT22;32591;48.102;11.772;2023-11-19T06:50:40;10.10;99.90
46117;DHT22;32591;48.102;11.772;2023-11-19T06:53:07;10.10;99.90
46117;DHT22;32591;48.102;11.772;2023-11-19T06:55:35;10.10;99.90
46117;DHT22;32591;48.102;11.772;2023-11-19T06:58:02;10.10;99.90
46117;DHT22;32591;48.102;11.772;2023-11-19T07:00:29;10.10;99.90
46117;DHT22;32591;48.102;11.772;2023-11-19T07:02:59;10.10;99.90
46117;DHT22;32591;48.102;11.772;2023-11-19T07:05:26;10.10;99.90
46117;DHT22;32591;48.102;11.772;2023-11-19T07:07:53;10.20;99.90
46117;DHT22;32591;48.102;11.772;2023-11-19T07:10:21;10.20;99.90
46117;DHT22;32591;48.102;11.772;2023-11-19T07:12:48;10.20;99.90
46117;DHT22;32591;48.102;11.772;2023-11-19T07:15:15;10.20;99.90
46117;DHT22;32591;48.102;11.772;2023-11-19T07:17:44;10.20;99.90
46117;DHT22;32591;48.102;11.772;2023-11-19T07:20:12;10.30;99.90
46117;DHT22;32591;48.102;11.772;2023-11-19T07:22:42;10.40;99.90
46117;DHT22;32591;48.102;11.772;2023-11-19T07:25:11;10.30;99.90
46117;DHT22;32591;48.102;11.772;2023-11-19T07:27:39;10.30;99.90
46117;DHT22;32591;48.102;11.772;2023-11-19T07:30:06;10.40;99.90
46117;DHT22;32591;48.102;11.772;2023-11-19T07:32:33;10.40;99.90
46117;DHT22;32591;48.102;11.772;2023-11-19T07:35:00;10.40;99.90
46117;DHT22;32591;48.102;11.772;2023-11-19T07:37:29;10.40;99.90
46117;DHT22;32591;48.102;11.772;2023-11-19T07:39:55;10.30;99.90
46117;DHT22;32591;48.102;11.772;2023-11-19T07:42:22;10.40;99.90
46117;DHT22;32591;48.102;11.772;2023-11-19T07:44:49;10.40;99.90
46117;DHT22;32591;48.102;11.772;2023-11-19T07:47:16;10.50;99.90
46117;DHT22;32591;48.102;11.772;2023-11-19T07:49:43;10.60;99.90
46117;DHT22;32591;48.102;11.772;2023-11-19T07:52:10;10.60;99.90
46117;DHT22;32591;48.102;11.772;2023-11-19T07:54:38;10.60;99.90
46117;DHT22;32591;48.102;11.772;2023-11-19T07:57:05;10.60;99.90
46117;DHT22;32591;48.102;11.772;2023-11-19T07:59:32;10.60;99.90
46117;DHT22;32591;48.102;11.772;2023-11-19T08:01:58;10.60;99.90
46117;DHT22;32591;48.102;11.772;2023-11-19T08:04:25;10.60;99.90
46117;DHT22;32591;48.102;11.772;2023-11-19T08:06:52;10.70;99.90
46117;DHT22;32591;48.102;11.772;2023-11-19T08:09:19;10.60;99.90
46117;DHT22;32591;48.102;11.772;2023-11-19T08:11:47;10.60;99.90
46117;DHT22;32591;48.102;11.772;2023-11-19T08:14:15;10.60;99.90
46117;DHT22;32591;48.102;11.772;2023-11-19T08:16:42;10.70;99.90
46117;DHT22;32591;48.102;11.772;2023-11-19T08:19:08;10.70;99.90
46117;DHT22;32591;48.102;11.772;2023-11-19T08:21:35;10.70;99.90
46117;DHT22;32591;48.102;11.772;2023-11-19T08:24:02;10.70;99.90
46117;DHT22;32591;48.102;11.772;2023-11-19T08:26:30;10.70;99.90
46117;DHT22;32591;48.102;11.772;2023-11-19T08:28:58;10.70;99.90
46117;DHT22;32591;48.102;11.772;2023-11-19T08:31:25;10.70;99.90
46117;DHT22;32591;48.102;11.772;2023-11-19T08:33:51;10.80;99.90
46117;DHT22;32591;48.102;11.772;2023-11-19T08:36:18;10.80;99.90
46117;DHT22;32591;48.102;11.772;2023-11-19T08:38:46;10.90;99.90
46117;DHT22;32591;48.102;11.772;2023-11-19T08:41:13;11.00;99.90
46117;DHT22;32591;48.102;11.772;2023-11-19T08:43:43;10.90;99.90
46117;DHT22;32591;48.102;11.772;2023-11-19T08:46:11;10.90;99.90
46117;DHT22;32591;48.102;11.772;2023-11-19T08:48:38;10.90;99.90
46117;DHT22;32591;48.102;11.772;2023-11-19T08:51:05;10.90;99.90
46117;DHT22;32591;48.102;11.772;2023-11-19T08:53:32;10.90;99.90
46117;DHT22;32591;48.102;11.772;2023-11-19T08:55:58;11.00;99.90
46117;DHT22;32591;48.102;11.772;2023-11-19T08:58:25;11.00;99.90
46117;DHT22;32591;48.102;11.772;2023-11-19T09:00:52;11.00;99.90
46117;DHT22;32591;48.102;11.772;2023-11-19T09:03:20;11.00;99.90
46117;DHT22;32591;48.102;11.772;2023-11-19T09:05:47;11.00;99.90
46117;DHT22;32591;48.102;11.772;2023-11-19T09:08:14;11.00;99.90
46117;DHT22;32591;48.102;11.772;2023-11-19T09:10:41;11.20;99.90
46117;DHT22;32591;48.102;11.772;2023-11-19T09:13:08;11.00;99.90
46117;DHT22;32591;48.102;11.772;2023-11-19T09:15:34;11.10;99.90
46117;DHT22;32591;48.102;11.772;2023-11-19T09:18:01;11.10;99.90
46117;DHT22;32591;48.102;11.772;2023-11-19T09:20:29;11.20;99.90
46117;DHT22;32591;48.102;11.772;2023-11-19T09:23:02;11.20;99.90
46117;DHT22;32591;48.102;11.772;2023-11-19T09:25:30;11.20;99.90
46117;DHT22;32591;48.102;11.772;2023-11-19T09:27:57;11.20;99.90
46117;DHT22;32591;48.102;11.772;2023-11-19T09:30:24;11.20;99.90
46117;DHT22;32591;48.102;11.772;2023-11-19T09:32:51;11.20;99.90
46117;DHT22;32591;48.102;11.772;2023-11-19T09:35:17;11.30;99.90
46117;DHT22;32591;48.102;11.772;2023-11-19T09:37:45;11.30;99.90
46117;DHT22;32591;48.102;11.772;2023-11-19T09:40:12;11.30;99.90
46117;DHT22;32591;48.102;11.772;2023-11-19T09:42:41;11.40;99.90
46117;DHT22;32591;48.102;11.772;2023-11-19T09:45:12;11.40;99.90
46117;DHT22;32591;48.102;11.772;2023-11-19T09:47:40;11.40;99.90
46117;DHT22;32591;48.102;11.772;2023-11-19T09:50:09;11.40;99.90
46117;DHT22;32591;48.102;11.772;2023-11-19T09:52:37;11.40;99.90
46117;DHT22;32591;48.102;11.772;2023-11-19T09:55:05;11.50;99.90
46117;DHT22;32591;48.102;11.772;2023-11-19T09:57:32;11.50;99.90
46117;DHT22;32591;48.102;11.772;2023-11-19T10:00:02;11.50;99.90
46117;DHT22;32591;48.102;11.772;2023-11-19T10:02:40;11.50;99.90
46117;DHT22;32591;48.102;11.772;2023-11-19T10:05:08;11.50;99.90
46117;DHT22;32591;48.102;11.772;2023-11-19T10:07:38;11.60;99.90
46117;DHT22;32591;48.102;11.772;2023-11-19T10:10:07;11.60;99.90
46117;DHT22;32591;48.102;11.772;2023-11-19T10:12:36;11.60;99.90
46117;DHT22;32591;48.102;11.772;2023-11-19T10:15:03;11.70;99.90
46117;DHT22;32591;48.102;11.772;2023-11-19T10:17:32;11.70;99.90
46117;DHT22;32591;48.102;11.772;2023-11-19T10:19:59;11.80;99.90
46117;DHT22;32591;48.102;11.772;2023-11-19T10:22:27;11.90;99.90
46117;DHT22;32591;48.102;11.772;2023-11-19T10:24:54;11.90;99.90
46117;DHT22;32591;48.102;11.772;2023-11-19T10:27:24;12.00;99.90
46117;DHT22;32591;48.102;11.772;2023-11-19T10:29:52;12.00;99.90
46117;DHT22;32591;48.102;11.772;2023-11-19T10:32:18;12.00;99.90
46117;DHT22;32591;48.102;11.772;2023-11-19T10:34:45;12.10;99.90
46117;DHT22;32591;48.102;11.772;2023-11-19T10:37:20;12.10;99.90
46117;DHT22;32591;48.102;11.772;2023-11-19T10:39:54;12.10;99.90
46117;DHT22;32591;48.102;11.772;2023-11-19T10:42:21;12.10;99.90
46117;DHT22;32591;48.102;11.772;2023-11-19T10:44:49;12.30;99.90
46117;DHT22;32591;48.102;11.772;2023-11-19T10:47:18;12.40;99.90
46117;DHT22;32591;48.102;11.772;2023-11-19T10:49:46;12.40;99.90
46117;DHT22;32591;48.102;11.772;2023-11-19T10:52:13;12.50;99.90
46117;DHT22;32591;48.102;11.772;2023-11-19T10:54:42;12.50;99.90
46117;DHT22;32591;48.102;11.772;2023-11-19T10:57:10;12.80;99.90
46117;DHT22;32591;48.102;11.772;2023-11-19T10:59:39;12.90;99.90
46117;DHT22;32591;48.102;11.772;2023-11-19T11:02:09;12.90;99.90
46117;DHT22;32591;48.102;11.772;2023-11-19T11:04:38;12.90;99.90
46117;DHT22;32591;48.102;11.772;2023-11-19T11:07:07;13.00;99.90
46117;DHT22;32591;48.102;11.772;2023-11-19T11:09:35;12.90;99.90
46117;DHT22;32591;48.102;11.772;2023-11-19T11:12:02;12.90;99.90
46117;DHT22;32591;48.102;11.772;2023-11-19T11:14:30;12.90;99.90
46117;DHT22;32591;48.102;11.772;2023-11-19T11:17:01;12.90;99.90
46117;DHT22;32591;48.102;11.772;2023-11-19T11:19:30;13.00;99.90
46117;DHT22;32591;48.102;11.772;2023-11-19T11:21:57;12.90;99.90
46117;DHT22;32591;48.102;11.772;2023-11-19T11:24:29;12.90;99.90
46117;DHT22;32591;48.102;11.772;2023-11-19T11:27:13;12.90;99.90
46117;DHT22;32591;48.102;11.772;2023-11-19T11:29:53;12.90;99.90
46117;DHT22;32591;48.102;11.772;2023-11-19T11:32:25;12.90;99.90
46117;DHT22;32591;48.102;11.772;2023-11-19T11:35:12;13.00;99.90
46117;DHT22;32591;48.102;11.772;2023-11-19T11:37:49;13.00;99.90
46117;DHT22;32591;48.102;11.772;2023-11-19T11:40:18;13.00;99.90
46117;DHT22;32591;48.102;11.772;2023-11-19T11:42:44;13.00;99.90
46117;DHT22;32591;48.102;11.772;2023-11-19T11:45:11;13.00;99.90
46117;DHT22;32591;48.102;11.772;2023-11-19T11:50:33;13.10;99.90
46117;DHT22;32591;48.102;11.772;2023-11-19T11:53:13;13.20;99.90
46117;DHT22;32591;48.102;11.772;2023-11-19T11:55:51;13.30;99.90
46117;DHT22;32591;48.102;11.772;2023-11-19T11:58:20;13.40;99.90
46117;DHT22;32591;48.102;11.772;2023-11-19T12:00:47;13.50;99.90
46117;DHT22;32591;48.102;11.772;2023-11-19T12:03:17;13.50;99.90
46117;DHT22;32591;48.102;11.772;2023-11-19T12:05:48;13.60;99.90
46117;DHT22;32591;48.102;11.772;2023-11-19T12:08:18;13.60;99.90
46117;DHT22;32591;48.102;11.772;2023-11-19T12:10:46;13.70;99.90
46117;DHT22;32591;48.102;11.772;2023-11-19T12:13:14;13.60;99.90
46117;DHT22;32591;48.102;11.772;2023-11-19T12:18:34;13.30;99.90
46117;DHT22;32591;48.102;11.772;2023-11-19T12:21:02;13.70;99.90
46117;DHT22;32591;48.102;11.772;2023-11-19T12:23:31;13.80;99.90
46117;DHT22;32591;48.102;11.772;2023-11-19T12:25:58;14.50;99.90
46117;DHT22;32591;48.102;11.772;2023-11-19T12:28:25;13.80;99.90
46117;DHT22;32591;48.102;11.772;2023-11-19T12:30:53;13.80;99.90
46117;DHT22;32591;48.102;11.772;2023-11-19T12:33:20;13.80;99.90
46117;DHT22;32591;48.102;11.772;2023-11-19T12:35:47;13.90;99.90
46117;DHT22;32591;48.102;11.772;2023-11-19T12:38:22;14.00;99.90
46117;DHT22;32591;48.102;11.772;2023-11-19T12:41:02;14.00;99.90
46117;DHT22;32591;48.102;11.772;2023-11-19T12:43:29;14.00;99.90
46117;DHT22;32591;48.102;11.772;2023-11-19T12:45:56;13.90;99.90
46117;DHT22;32591;48.102;11.772;2023-11-19T12:48:23;13.90;99.90
46117;DHT22;32591;48.102;11.772;2023-11-19T12:50:50;13.80;99.90
46117;DHT22;32591;48.102;11.772;2023-11-19T12:53:18;13.80;99.90
46117;DHT22;32591;48.102;11.772;2023-11-19T12:55:46;13.90;99.90
46117;DHT22;32591;48.102;11.772;2023-11-19T12:58:28;14.00;99.90
46117;DHT22;32591;48.102;11.772;2023-11-19T13:00:59;14.00;99.90
46117;DHT22;32591;48.102;11.772;2023-11-19T13:03:29;14.00;99.90
46117;DHT22;32591;48.102;11.772;2023-11-19T13:06:06;13.90;99.90
46117;DHT22;32591;48.102;11.772;2023-11-19T13:08:36;13.70;99.90
46117;DHT22;32591;48.102;11.772;2023-11-19T13:11:05;13.70;99.90
46117;DHT22;32591;48.102;11.772;2023-11-19T13:13:33;13.70;99.90
46117;DHT22;32591;48.102;11.772;2023-11-19T13:16:22;13.60;99.90
46117;DHT22;32591;48.102;11.772;2023-11-19T13:18:49;13.60;99.90
46117;DHT22;32591;48.102;11.772;2023-11-19T13:21:16;13.70;99.90
46117;DHT22;32591;48.102;11.772;2023-11-19T13:23:43;13.60;99.90
46117;DHT22;32591;48.102;11.772;2023-11-19T13:26:12;13.60;99.90
46117;DHT22;32591;48.102;11.772;2023-11-19T13:28:38;13.60;99.90
46117;DHT22;32591;48.102;11.772;2023-11-19T13:31:05;13.60;99.90
46117;DHT22;32591;48.102;11.772;2023-11-19T13:33:32;13.60;99.90
46117;DHT22;32591;48.102;11.772;2023-11-19T13:35:59;13.60;99.90
46117;DHT22;32591;48.102;11.772;2023-11-19T13:38:31;13.50;99.90
46117;DHT22;32591;48.102;11.772;2023-11-19T13:40:58;13.50;99.90
46117;DHT22;32591;48.102;11.772;2023-11-19T13:43:26;13.50;99.90
46117;DHT22;32591;48.102;11.772;2023-11-19T13:45:54;13.50;99.90
46117;DHT22;32591;48.102;11.772;2023-11-19T13:48:20;13.40;99.90
46117;DHT22;32591;48.102;11.772;2023-11-19T13:50:47;13.40;99.90
46117;DHT22;32591;48.102;11.772;2023-11-19T13:53:14;13.50;99.90
46117;DHT22;32591;48.102;11.772;2023-11-19T13:55:41;13.40;99.90
46117;DHT22;32591;48.102;11.772;2023-11-19T13:58:08;13.30;99.90
46117;DHT22;32591;48.102;11.772;2023-11-19T14:00:36;13.30;99.90
46117;DHT22;32591;48.102;11.772;2023-11-19T14:03:03;13.30;99.90
46117;DHT22;32591;48.102;11.772;2023-11-19T14:05:30;13.20;99.90
46117;DHT22;32591;48.102;11.772;2023-11-19T14:07:57;13.20;99.90
46117;DHT22;32591;48.102;11.772;2023-11-19T14:10:24;13.20;99.90
46117;DHT22;32591;48.102;11.772;2023-11-19T14:12:51;13.10;99.90
46117;DHT22;32591;48.102;11.772;2023-11-19T14:15:18;13.10;99.90
46117;DHT22;32591;48.102;11.772;2023-11-19T14:17:46;13.10;99.90
46117;DHT22;32591;48.102;11.772;2023-11-19T14:20:13;13.10;99.90
46117;DHT22;32591;48.102;11.772;2023-11-19T14:22:41;13.10;99.90
46117;DHT22;32591;48.102;11.772;2023-11-19T14:25:08;13.00;99.90
46117;DHT22;32591;48.102;11.772;2023-11-19T14:27:36;13.10;99.90
46117;DHT22;32591;48.102;11.772;2023-11-19T14:30:04;13.10;99.90
46117;DHT22;32591;48.102;11.772;2023-11-19T14:32:32;13.10;99.90
46117;DHT22;32591;48.102;11.772;2023-11-19T14:35:00;13.10;99.90
46117;DHT22;32591;48.102;11.772;2023-11-19T14:37:29;13.10;99.90
46117;DHT22;32591;48.102;11.772;2023-11-19T14:39:56;13.20;99.90
46117;DHT22;32591;48.102;11.772;2023-11-19T14:42:23;13.20;99.90
46117;DHT22;32591;48.102;11.772;2023-11-19T14:44:50;13.20;99.90
46117;DHT22;32591;48.102;11.772;2023-11-19T14:47:18;13.20;99.90
46117;DHT22;32591;48.102;11.772;2023-11-19T14:49:45;13.10;99.90
46117;DHT22;32591;48.102;11.772;2023-11-19T14:52:13;13.20;99.90
46117;DHT22;32591;48.102;11.772;2023-11-19T14:54:40;13.20;99.90
46117;DHT22;32591;48.102;11.772;2023-11-19T14:57:07;13.30;99.90
46117;DHT22;32591;48.102;11.772;2023-11-19T14:59:34;13.40;99.90
46117;DHT22;32591;48.102;11.772;2023-11-19T15:02:02;13.30;99.90
46117;DHT22;32591;48.102;11.772;2023-11-19T15:04:29;13.30;99.90
46117;DHT22;32591;48.102;11.772;2023-11-19T15:06:56;13.30;99.90
46117;DHT22;32591;48.102;11.772;2023-11-19T15:09:24;13.20;99.90
46117;DHT22;32591;48.102;11.772;2023-11-19T15:11:53;13.20;99.90
46117;DHT22;32591;48.102;11.772;2023-11-19T15:14:20;13.10;99.90
46117;DHT22;32591;48.102;11.772;2023-11-19T15:16:46;13.10;99.90
46117;DHT22;32591;48.102;11.772;2023-11-19T15:19:16;12.90;99.90
46117;DHT22;32591;48.102;11.772;2023-11-19T15:21:45;12.90;99.90
46117;DHT22;32591;48.102;11.772;2023-11-19T15:24:12;12.80;99.90
46117;DHT22;32591;48.102;11.772;2023-11-19T15:26:40;12.70;99.90
46117;DHT22;32591;48.102;11.772;2023-11-19T15:29:07;12.70;99.90
46117;DHT22;32591;48.102;11.772;2023-11-19T15:31:34;12.60;99.90
46117;DHT22;32591;48.102;11.772;2023-11-19T15:34:01;12.60;99.90